sensor_id;sensor_type;location;lat;lon;timestamp;temperature;humidity
8684;DHT22;4379;59.744;18.206;2022-10-04T00:01:45;6.40;99.90
8684;DHT22;4379;59.744;18.206;2022-10-04T00:09:22;6.50;99.90
8684;DHT22;4379;59.744;18.206;2022-10-04T00:11:52;6.40;99.90
8684;DHT22;4379;59.744;18.206;2022-10-04T00:14:41;6.50;99.90
8684;DHT22;4379;59.744;18.206;2022-10-04T00:17:13;6.60;99.90
8684;DHT22;4379;59.744;18.206;2022-10-04T00:19:48;6.60;99.90
8684;DHT22;4379;59.744;18.206;2022-10-04T00:25:15;6.70;99.90
8684;DHT22;4379;59.744;18.206;2022-10-04T00:31:06;6.80;99.90
8684;DHT22;4379;59.744;18.206;2022-10-04T00:34:32;7.00;99.90
8684;DHT22;4379;59.744;18.206;2022-10-04T00:47:00;6.90;99.90
8684;DHT22;4379;59.744;18.206;2022-10-04T00:49:32;6.90;99.90
8684;DHT22;4379;59.744;18.206;2022-10-04T00:52:08;6.80;99.90
8684;DHT22;4379;59.744;18.206;2022-10-04T00:54:47;6.70;99.90
8684;DHT22;4379;59.744;18.206;2022-10-04T00:57:20;6.60;99.90
8684;DHT22;4379;59.744;18.206;2022-10-04T00:59:51;6.50;99.90
8684;DHT22;4379;59.744;18.206;2022-10-04T01:02:28;6.30;99.90
8684;DHT22;4379;59.744;18.206;2022-10-04T01:05:18;6.20;99.90
8684;DHT22;4379;59.744;18.206;2022-10-04T01:08:17;6.20;99.90
8684;DHT22;4379;59.744;18.206;2022-10-04T01:10:55;6.10;99.90
8684;DHT22;4379;59.744;18.206;2022-10-04T01:18:40;5.90;99.90
8684;DHT22;4379;59.744;18.206;2022-10-04T01:29:13;5.70;99.90
8684;DHT22;4379;59.744;18.206;2022-10-04T01:31:49;5.80;99.90
8684;DHT22;4379;59.744;18.206;2022-10-04T01:34:21;5.70;99.90
8684;DHT22;4379;59.744;18.206;2022-10-04T01:36:50;5.70;99.90
8684;DHT22;4379;59.744;18.206;2022-10-04T01:39:21;5.60;99.90
8684;DHT22;4379;59.744;18.206;2022-10-04T01:44:43;5.60;99.90
8684;DHT22;4379;59.744;18.206;2022-10-04T01:47:14;5.60;99.90
8684;DHT22;4379;59.744;18.206;2022-10-04T01:49:44;5.60;99.90
8684;DHT22;4379;59.744;18.206;2022-10-04T01:52:28;5.60;99.90
8684;DHT22;4379;59.744;18.206;2022-10-04T01:55:08;5.60;99.90
8684;DHT22;4379;59.744;18.206;2022-10-04T01:57:45;5.60;99.90
8684;DHT22;4379;59.744;18.206;2022-10-04T02:00:15;5.60;99.90
8684;DHT22;4379;59.744;18.206;2022-10-04T02:05:27;5.50;99.90
8684;DHT22;4379;59.744;18.206;2022-10-04T02:07:56;5.40;99.90
8684;DHT22;4379;59.744;18.206;2022-10-04T02:10:27;5.40;99.90
8684;DHT22;4379;59.744;18.206;2022-10-04T02:12:56;5.30;99.90
8684;DHT22;4379;59.744;18.206;2022-10-04T02:15:24;5.20;99.90
8684;DHT22;4379;59.744;18.206;2022-10-04T02:17:55;5.30;99.90
8684;DHT22;4379;59.744;18.206;2022-10-04T02:20:25;5.20;99.90
8684;DHT22;4379;59.744;18.206;2022-10-04T02:22:58;5.20;99.90
8684;DHT22;4379;59.744;18.206;2022-10-04T02:25:29;5.10;99.90
8684;DHT22;4379;59.744;18.206;2022-10-04T02:27:57;5.10;99.90
8684;DHT22;4379;59.744;18.206;2022-10-04T02:30:24;5.00;99.90
8684;DHT22;4379;59.744;18.206;2022-10-04T02:32:55;4.90;99.90
8684;DHT22;4379;59.744;18.206;2022-10-04T02:38:21;4.80;99.90
8684;DHT22;4379;59.744;18.206;2022-10-04T02:40:58;4.80;99.90
8684;DHT22;4379;59.744;18.206;2022-10-04T02:43:51;4.80;99.90
8684;DHT22;4379;59.744;18.206;2022-10-04T02:46:48;4.80;99.90
8684;DHT22;4379;59.744;18.206;2022-10-04T02:49:36;4.70;99.90
8684;DHT22;4379;59.744;18.206;2022-10-04T02:52:08;4.60;99.90
8684;DHT22;4379;59.744;18.206;2022-10-04T02:57:31;4.60;99.90
8684;DHT22;4379;59.744;18.206;2022-10-04T03:02:38;4.60;99.90
8684;DHT22;4379;59.744;18.206;2022-10-04T03:05:09;4.50;99.90
8684;DHT22;4379;59.744;18.206;2022-10-04T03:07:38;4.50;99.90
8684;DHT22;4379;59.744;18.206;2022-10-04T03:10:09;4.60;99.90
8684;DHT22;4379;59.744;18.206;2022-10-04T03:12:39;4.60;99.90
8684;DHT22;4379;59.744;18.206;2022-10-04T03:15:08;4.50;99.90
8684;DHT22;4379;59.744;18.206;2022-10-04T03:17:39;4.50;99.90
8684;DHT22;4379;59.744;18.206;2022-10-04T03:20:08;4.50;99.90
8684;DHT22;4379;59.744;18.206;2022-10-04T03:22:39;4.60;99.90
8684;DHT22;4379;59.744;18.206;2022-10-04T03:25:17;4.60;99.90
8684;DHT22;4379;59.744;18.206;2022-10-04T03:27:48;4.60;99.90
8684;DHT22;4379;59.744;18.206;2022-10-04T03:30:17;4.60;99.90
8684;DHT22;4379;59.744;18.206;2022-10-04T03:32:48;4.60;99.90
8684;DHT22;4379;59.744;18.206;2022-10-04T03:35:31;4.50;99.90
8684;DHT22;4379;59.744;18.206;2022-10-04T03:37:59;4.50;99.90
8684;DHT22;4379;59.744;18.206;2022-10-04T03:40:30;4.50;99.90
8684;DHT22;4379;59.744;18.206;2022-10-04T03:43:00;4.40;99.90
8684;DHT22;4379;59.744;18.206;2022-10-04T03:45:31;4.40;99.90
8684;DHT22;4379;59.744;18.206;2022-10-04T03:48:05;4.40;99.90
8684;DHT22;4379;59.744;18.206;2022-10-04T03:50:46;4.30;99.90
8684;DHT22;4379;59.744;18.206;2022-10-04T03:53:35;4.40;99.90
8684;DHT22;4379;59.744;18.206;2022-10-04T03:56:12;4.40;99.90
8684;DHT22;4379;59.744;18.206;2022-10-04T03:58:41;4.40;99.90
8684;DHT22;4379;59.744;18.206;2022-10-04T04:01:37;4.30;99.90
8684;DHT22;4379;59.744;18.206;2022-10-04T04:07:01;4.20;99.90
8684;DHT22;4379;59.744;18.206;2022-10-04T04:12:30;4.10;99.90
8684;DHT22;4379;59.744;18.206;2022-10-04T04:15:01;4.10;99.90
8684;DHT22;4379;59.744;18.206;2022-10-04T04:20:01;4.10;99.90
8684;DHT22;4379;59.744;18.206;2022-10-04T04:22:34;4.10;99.90
8684;DHT22;4379;59.744;18.206;2022-10-04T04:25:05;4.20;99.90
8684;DHT22;4379;59.744;18.206;2022-10-04T04:27:36;4.10;99.90
8684;DHT22;4379;59.744;18.206;2022-10-04T04:30:07;4.10;99.90
8684;DHT22;4379;59.744;18.206;2022-10-04T04:32:40;4.20;99.90
8684;DHT22;4379;59.744;18.206;2022-10-04T04:35:30;4.20;99.90
8684;DHT22;4379;59.744;18.206;2022-10-04T04:38:03;4.20;99.90
8684;DHT22;4379;59.744;18.206;2022-10-04T04:40:30;4.30;99.90
8684;DHT22;4379;59.744;18.206;2022-10-04T04:43:00;4.30;99.90
8684;DHT22;4379;59.744;18.206;2022-10-04T04:45:29;4.20;99.90
8684;DHT22;4379;59.744;18.206;2022-10-04T04:47:58;4.10;99.90
8684;DHT22;4379;59.744;18.206;2022-10-04T04:50:33;4.10;99.90
8684;DHT22;4379;59.744;18.206;2022-10-04T04:53:14;4.00;99.90
8684;DHT22;4379;59.744;18.206;2022-10-04T04:55:55;4.00;99.90
8684;DHT22;4379;59.744;18.206;2022-10-04T04:58:36;4.00;99.90
8684;DHT22;4379;59.744;18.206;2022-10-04T05:01:24;3.90;99.90
8684;DHT22;4379;59.744;18.206;2022-10-04T05:04:19;3.90;99.90
8684;DHT22;4379;59.744;18.206;2022-10-04T05:07:11;3.80;99.90
8684;DHT22;4379;59.744;18.206;2022-10-04T05:09:42;3.90;99.90
8684;DHT22;4379;59.744;18.206;2022-10-04T05:12:17;4.00;99.90
8684;DHT22;4379;59.744;18.206;2022-10-04T05:14:51;4.00;99.90
8684;DHT22;4379;59.744;18.206;2022-10-04T05:17:32;4.00;99.90
8684;DHT22;4379;59.744;18.206;2022-10-04T05:20:01;4.10;99.90
8684;DHT22;4379;59.744;18.206;2022-10-04T05:22:30;4.10;99.90
8684;DHT22;4379;59.744;18.206;2022-10-04T05:25:02;4.10;99.90
8684;DHT22;4379;59.744;18.206;2022-10-04T05:27:40;4.10;99.90
8684;DHT22;4379;59.744;18.206;2022-10-04T05:33:00;4.10;99.90
8684;DHT22;4379;59.744;18.206;2022-10-04T05:35:29;4.10;99.90
8684;DHT22;4379;59.744;18.206;2022-10-04T05:38:10;4.10;99.90
8684;DHT22;4379;59.744;18.206;2022-10-04T05:43:44;4.10;99.90
8684;DHT22;4379;59.744;18.206;2022-10-04T05:46:24;4.10;99.90
8684;DHT22;4379;59.744;18.206;2022-10-04T05:49:07;4.10;99.90
8684;DHT22;4379;59.744;18.206;2022-10-04T05:51:54;4.10;99.90
8684;DHT22;4379;59.744;18.206;2022-10-04T05:54:24;4.10;99.90
8684;DHT22;4379;59.744;18.206;2022-10-04T06:00:10;4.10;99.90
8684;DHT22;4379;59.744;18.206;2022-10-04T06:03:35;4.20;99.90
8684;DHT22;4379;59.744;18.206;2022-10-04T06:06:11;4.30;99.90
8684;DHT22;4379;59.744;18.206;2022-10-04T06:17:21;4.50;99.90
8684;DHT22;4379;59.744;18.206;2022-10-04T06:22:46;4.60;99.90
8684;DHT22;4379;59.744;18.206;2022-10-04T06:25:23;4.60;99.90
8684;DHT22;4379;59.744;18.206;2022-10-04T06:53:32;5.40;99.90
8684;DHT22;4379;59.744;18.206;2022-10-04T07:01:55;5.70;99.90
8684;DHT22;4379;59.744;18.206;2022-10-04T07:07:37;5.90;99.90
8684;DHT22;4379;59.744;18.206;2022-10-04T07:10:32;6.10;99.90
8684;DHT22;4379;59.744;18.206;2022-10-04T07:13:14;6.40;99.90
8684;DHT22;4379;59.744;18.206;2022-10-04T07:18:59;6.60;99.90
8684;DHT22;4379;59.744;18.206;2022-10-04T07:21:44;6.70;99.90
8684;DHT22;4379;59.744;18.206;2022-10-04T07:24:24;6.80;99.90
8684;DHT22;4379;59.744;18.206;2022-10-04T07:26:53;7.00;99.90
8684;DHT22;4379;59.744;18.206;2022-10-04T07:29:26;7.10;99.90
8684;DHT22;4379;59.744;18.206;2022-10-04T07:37:10;7.50;99.90
8684;DHT22;4379;59.744;18.206;2022-10-04T07:42:28;7.60;99.90
8684;DHT22;4379;59.744;18.206;2022-10-04T07:45:20;8.00;99.90
8684;DHT22;4379;59.744;18.206;2022-10-04T07:48:13;8.90;99.90
8684;DHT22;4379;59.744;18.206;2022-10-04T07:51:06;9.80;99.90
8684;DHT22;4379;59.744;18.206;2022-10-04T07:53:46;10.70;99.90
8684;DHT22;4379;59.744;18.206;2022-10-04T07:56:18;11.10;99.90
8684;DHT22;4379;59.744;18.206;2022-10-04T08:07:02;9.70;99.90
8684;DHT22;4379;59.744;18.206;2022-10-04T08:10:04;9.60;99.90
8684;DHT22;4379;59.744;18.206;2022-10-04T08:12:48;9.50;99.90
8684;DHT22;4379;59.744;18.206;2022-10-04T08:15:38;9.40;99.90
8684;DHT22;4379;59.744;18.206;2022-10-04T08:20:57;9.50;99.90
8684;DHT22;4379;59.744;18.206;2022-10-04T08:23:56;9.50;99.90
8684;DHT22;4379;59.744;18.206;2022-10-04T08:30:00;10.20;99.90
8684;DHT22;4379;59.744;18.206;2022-10-04T08:43:45;11.70;99.90
8684;DHT22;4379;59.744;18.206;2022-10-04T08:52:11;12.10;99.90
8684;DHT22;4379;59.744;18.206;2022-10-04T09:26:02;12.60;99.90
8684;DHT22;4379;59.744;18.206;2022-10-04T09:37:38;12.10;99.90
8684;DHT22;4379;59.744;18.206;2022-10-04T09:56:49;12.60;99.90
8684;DHT22;4379;59.744;18.206;2022-10-04T09:59:47;12.50;99.90
8684;DHT22;4379;59.744;18.206;2022-10-04T10:08:35;12.70;99.90
8684;DHT22;4379;59.744;18.206;2022-10-04T10:17:14;12.50;99.90
8684;DHT22;4379;59.744;18.206;2022-10-04T10:25:36;12.80;99.90
8684;DHT22;4379;59.744;18.206;2022-10-04T10:36:32;12.90;99.90
8684;DHT22;4379;59.744;18.206;2022-10-04T10:41:55;12.80;99.90
8684;DHT22;4379;59.744;18.206;2022-10-04T10:56:29;13.30;99.90
8684;DHT22;4379;59.744;18.206;2022-10-04T11:07:48;13.40;99.90
8684;DHT22;4379;59.744;18.206;2022-10-04T11:16:52;13.30;99.90
8684;DHT22;4379;59.744;18.206;2022-10-04T11:30:26;13.90;99.90
8684;DHT22;4379;59.744;18.206;2022-10-04T11:36:05;14.00;99.90
8684;DHT22;4379;59.744;18.206;2022-10-04T11:44:34;14.10;99.90
8684;DHT22;4379;59.744;18.206;2022-10-04T11:56:12;14.00;99.90
8684;DHT22;4379;59.744;18.206;2022-10-04T11:59:06;14.20;99.90
8684;DHT22;4379;59.744;18.206;2022-10-04T12:10:33;14.40;99.90
8684;DHT22;4379;59.744;18.206;2022-10-04T12:33:51;14.30;99.90
8684;DHT22;4379;59.744;18.206;2022-10-04T12:39:48;14.30;99.90
8684;DHT22;4379;59.744;18.206;2022-10-04T12:45:28;14.40;99.90
8684;DHT22;4379;59.744;18.206;2022-10-04T12:56:06;14.50;99.90
8684;DHT22;4379;59.744;18.206;2022-10-04T13:01:55;14.40;99.90
8684;DHT22;4379;59.744;18.206;2022-10-04T13:04:35;14.50;99.90
8684;DHT22;4379;59.744;18.206;2022-10-04T13:15:56;14.50;99.90
8684;DHT22;4379;59.744;18.206;2022-10-04T13:24:25;14.30;99.90
8684;DHT22;4379;59.744;18.206;2022-10-04T13:27:15;14.50;99.90
8684;DHT22;4379;59.744;18.206;2022-10-04T13:29:53;14.40;99.90
8684;DHT22;4379;59.744;18.206;2022-10-04T13:32:29;14.50;99.90
8684;DHT22;4379;59.744;18.206;2022-10-04T13:54:45;14.40;99.90
8684;DHT22;4379;59.744;18.206;2022-10-04T13:57:37;14.30;99.90
8684;DHT22;4379;59.744;18.206;2022-10-04T14:00:18;14.10;99.90
8684;DHT22;4379;59.744;18.206;2022-10-04T14:08:32;14.10;99.90
8684;DHT22;4379;59.744;18.206;2022-10-04T14:11:50;14.10;99.90
8684;DHT22;4379;59.744;18.206;2022-10-04T14:18:14;14.00;99.90
8684;DHT22;4379;59.744;18.206;2022-10-04T14:26:11;13.90;99.90
8684;DHT22;4379;59.744;18.206;2022-10-04T14:28:57;13.90;99.90
8684;DHT22;4379;59.744;18.206;2022-10-04T14:35:11;13.80;99.90
8684;DHT22;4379;59.744;18.206;2022-10-04T14:51:51;13.40;99.90
8684;DHT22;4379;59.744;18.206;2022-10-04T14:57:23;13.40;99.90
8684;DHT22;4379;59.744;18.206;2022-10-04T15:00:22;13.40;99.90
8684;DHT22;4379;59.744;18.206;2022-10-04T15:06:24;13.20;99.90
8684;DHT22;4379;59.744;18.206;2022-10-04T15:15:30;12.90;99.90
8684;DHT22;4379;59.744;18.206;2022-10-04T15:18:21;12.90;99.90
8684;DHT22;4379;59.744;18.206;2022-10-04T15:23:41;12.60;99.90
8684;DHT22;4379;59.744;18.206;2022-10-04T15:48:00;11.60;99.90
8684;DHT22;4379;59.744;18.206;2022-10-04T15:50:41;11.40;99.90
8684;DHT22;4379;59.744;18.206;2022-10-04T16:08:03;10.50;99.90
8684;DHT22;4379;59.744;18.206;2022-10-04T16:22:11;9.90;99.90
8684;DHT22;4379;59.744;18.206;2022-10-04T16:24:58;9.80;99.90
8684;DHT22;4379;59.744;18.206;2022-10-04T16:27:41;9.70;99.90
8684;DHT22;4379;59.744;18.206;2022-10-04T16:33:19;9.70;99.90
8684;DHT22;4379;59.744;18.206;2022-10-04T16:38:32;9.60;99.90
8684;DHT22;4379;59.744;18.206;2022-10-04T16:41:13;9.50;99.90
8684;DHT22;4379;59.744;18.206;2022-10-04T16:43:52;9.30;99.90
8684;DHT22;4379;59.744;18.206;2022-10-04T16:46:36;9.20;99.90
8684;DHT22;4379;59.744;18.206;2022-10-04T16:49:37;9.20;99.90
8684;DHT22;4379;59.744;18.206;2022-10-04T16:54:57;8.90;99.90
8684;DHT22;4379;59.744;18.206;2022-10-04T16:57:27;8.80;99.90
8684;DHT22;4379;59.744;18.206;2022-10-04T16:59:56;8.80;99.90
8684;DHT22;4379;59.744;18.206;2022-10-04T17:13:23;8.40;99.90
8684;DHT22;4379;59.744;18.206;2022-10-04T17:16:16;8.30;99.90
8684;DHT22;4379;59.744;18.206;2022-10-04T17:18:50;8.20;99.90
8684;DHT22;4379;59.744;18.206;2022-10-04T17:21:30;8.10;99.90
8684;DHT22;4379;59.744;18.206;2022-10-04T17:32:22;7.90;99.90
8684;DHT22;4379;59.744;18.206;2022-10-04T17:38:12;8.00;99.90
8684;DHT22;4379;59.744;18.206;2022-10-04T17:49:42;8.50;99.90
8684;DHT22;4379;59.744;18.206;2022-10-04T17:52:40;8.60;99.90
8684;DHT22;4379;59.744;18.206;2022-10-04T17:58:19;8.90;99.90
8684;DHT22;4379;59.744;18.206;2022-10-04T18:01:07;9.00;99.90
8684;DHT22;4379;59.744;18.206;2022-10-04T18:03:50;9.10;99.90
8684;DHT22;4379;59.744;18.206;2022-10-04T18:09:01;9.20;99.90
8684;DHT22;4379;59.744;18.206;2022-10-04T18:11:42;9.30;99.90
8684;DHT22;4379;59.744;18.206;2022-10-04T18:14:40;9.40;99.90
8684;DHT22;4379;59.744;18.206;2022-10-04T18:17:29;9.40;99.90
8684;DHT22;4379;59.744;18.206;2022-10-04T18:20:21;9.50;99.90
8684;DHT22;4379;59.744;18.206;2022-10-04T18:23:14;9.50;99.90
8684;DHT22;4379;59.744;18.206;2022-10-04T18:25:43;9.60;99.90
8684;DHT22;4379;59.744;18.206;2022-10-04T18:28:19;9.50;99.90
8684;DHT22;4379;59.744;18.206;2022-10-04T18:33:29;9.60;99.90
8684;DHT22;4379;59.744;18.206;2022-10-04T18:36:22;9.60;99.90
8684;DHT22;4379;59.744;18.206;2022-10-04T18:41:54;9.80;99.90
8684;DHT22;4379;59.744;18.206;2022-10-04T18:44:26;9.80;99.90
8684;DHT22;4379;59.744;18.206;2022-10-04T18:46:59;9.80;99.90
8684;DHT22;4379;59.744;18.206;2022-10-04T18:49:29;9.90;99.90
8684;DHT22;4379;59.744;18.206;2022-10-04T18:54:59;10.00;99.90
8684;DHT22;4379;59.744;18.206;2022-10-04T19:00:22;10.00;99.90
8684;DHT22;4379;59.744;18.206;2022-10-04T19:03:18;10.00;99.90
8684;DHT22;4379;59.744;18.206;2022-10-04T19:05:56;10.00;99.90
8684;DHT22;4379;59.744;18.206;2022-10-04T19:11:55;10.10;99.90
8684;DHT22;4379;59.744;18.206;2022-10-04T19:14:28;10.00;99.90
8684;DHT22;4379;59.744;18.206;2022-10-04T19:25:39;10.10;99.90
8684;DHT22;4379;59.744;18.206;2022-10-04T19:28:36;10.10;99.90
8684;DHT22;4379;59.744;18.206;2022-10-04T19:36:37;10.20;99.90
8684;DHT22;4379;59.744;18.206;2022-10-04T19:42:16;10.30;99.90
8684;DHT22;4379;59.744;18.206;2022-10-04T19:45:07;10.40;99.90
8684;DHT22;4379;59.744;18.206;2022-10-04T19:47:50;10.40;99.90
8684;DHT22;4379;59.744;18.206;2022-10-04T19:50:21;10.40;99.90
8684;DHT22;4379;59.744;18.206;2022-10-04T19:53:53;10.40;99.90
8684;DHT22;4379;59.744;18.206;2022-10-04T19:56:00;10.40;99.90
8684;DHT22;4379;59.744;18.206;2022-10-04T19:58:41;10.40;99.90
8684;DHT22;4379;59.744;18.206;2022-10-04T20:01:19;10.40;99.90
8684;DHT22;4379;59.744;18.206;2022-10-04T20:03:54;10.40;99.90
8684;DHT22;4379;59.744;18.206;2022-10-04T20:06:51;10.50;99.90
8684;DHT22;4379;59.744;18.206;2022-10-04T20:09:31;10.50;99.90
8684;DHT22;4379;59.744;18.206;2022-10-04T20:12:04;10.50;99.90
8684;DHT22;4379;59.744;18.206;2022-10-04T20:22:27;10.60;99.90
8684;DHT22;4379;59.744;18.206;2022-10-04T20:24:54;10.50;99.90
8684;DHT22;4379;59.744;18.206;2022-10-04T20:34:56;10.60;99.90
8684;DHT22;4379;59.744;18.206;2022-10-04T20:45:50;10.70;99.90
8684;DHT22;4379;59.744;18.206;2022-10-04T20:48:26;10.70;99.90
8684;DHT22;4379;59.744;18.206;2022-10-04T20:50:54;10.80;99.90
8684;DHT22;4379;59.744;18.206;2022-10-04T20:53:25;10.70;99.90
8684;DHT22;4379;59.744;18.206;2022-10-04T20:56:15;10.70;99.90
8684;DHT22;4379;59.744;18.206;2022-10-04T20:58:57;10.60;99.90
8684;DHT22;4379;59.744;18.206;2022-10-04T21:01:32;10.60;99.90
8684;DHT22;4379;59.744;18.206;2022-10-04T21:07:04;10.60;99.90
8684;DHT22;4379;59.744;18.206;2022-10-04T21:09:34;10.60;99.90
8684;DHT22;4379;59.744;18.206;2022-10-04T21:12:02;10.60;99.90
8684;DHT22;4379;59.744;18.206;2022-10-04T21:14:34;10.70;99.90
8684;DHT22;4379;59.744;18.206;2022-10-04T21:17:57;10.60;99.90
8684;DHT22;4379;59.744;18.206;2022-10-04T21:19:50;10.50;99.90
8684;DHT22;4379;59.744;18.206;2022-10-04T21:27:36;10.60;99.90
8684;DHT22;4379;59.744;18.206;2022-10-04T21:30:16;10.60;99.90
8684;DHT22;4379;59.744;18.206;2022-10-04T21:32:43;10.60;99.90
8684;DHT22;4379;59.744;18.206;2022-10-04T21:35:11;10.60;99.90
8684;DHT22;4379;59.744;18.206;2022-10-04T21:37:39;10.50;99.90
8684;DHT22;4379;59.744;18.206;2022-10-04T21:40:06;10.50;99.90
8684;DHT22;4379;59.744;18.206;2022-10-04T21:42:34;10.40;99.90
8684;DHT22;4379;59.744;18.206;2022-10-04T21:45:01;10.50;99.90
8684;DHT22;4379;59.744;18.206;2022-10-04T21:47:28;10.50;99.90
8684;DHT22;4379;59.744;18.206;2022-10-04T21:49:55;10.50;99.90
8684;DHT22;4379;59.744;18.206;2022-10-04T21:52:23;10.50;99.90
8684;DHT22;4379;59.744;18.206;2022-10-04T21:54:50;10.50;99.90
8684;DHT22;4379;59.744;18.206;2022-10-04T21:57:17;10.50;99.90
8684;DHT22;4379;59.744;18.206;2022-10-04T21:59:44;10.40;99.90
8684;DHT22;4379;59.744;18.206;2022-10-04T22:02:13;10.50;99.90
8684;DHT22;4379;59.744;18.206;2022-10-04T22:04:40;10.50;99.90
8684;DHT22;4379;59.744;18.206;2022-10-04T22:07:07;10.60;99.90
8684;DHT22;4379;59.744;18.206;2022-10-04T22:09:36;10.60;99.90
8684;DHT22;4379;59.744;18.206;2022-10-04T22:12:03;10.60;99.90
8684;DHT22;4379;59.744;18.206;2022-10-04T22:14:31;10.60;99.90
8684;DHT22;4379;59.744;18.206;2022-10-04T22:16:58;10.60;99.90
8684;DHT22;4379;59.744;18.206;2022-10-04T22:19:26;10.60;99.90
8684;DHT22;4379;59.744;18.206;2022-10-04T22:21:53;10.50;99.90
8684;DHT22;4379;59.744;18.206;2022-10-04T22:24:20;10.50;99.90
8684;DHT22;4379;59.744;18.206;2022-10-04T22:26:48;10.50;99.90
8684;DHT22;4379;59.744;18.206;2022-10-04T22:29:17;10.50;99.90
8684;DHT22;4379;59.744;18.206;2022-10-04T22:31:48;10.50;99.90
8684;DHT22;4379;59.744;18.206;2022-10-04T22:34:18;10.50;99.90
8684;DHT22;4379;59.744;18.206;2022-10-04T22:36:47;10.50;99.90
8684;DHT22;4379;59.744;18.206;2022-10-04T22:39:18;10.50;99.90
8684;DHT22;4379;59.744;18.206;2022-10-04T22:41:47;10.50;99.90
8684;DHT22;4379;59.744;18.206;2022-10-04T22:44:34;10.50;99.90
8684;DHT22;4379;59.744;18.206;2022-10-04T22:47:06;10.50;99.90
8684;DHT22;4379;59.744;18.206;2022-10-04T22:49:38;10.40;99.90
8684;DHT22;4379;59.744;18.206;2022-10-04T22:52:17;10.40;99.90
8684;DHT22;4379;59.744;18.206;2022-10-04T22:54:52;10.40;99.90
8684;DHT22;4379;59.744;18.206;2022-10-04T22:57:20;10.50;99.90
8684;DHT22;4379;59.744;18.206;2022-10-04T22:59:49;10.40;99.90
8684;DHT22;4379;59.744;18.206;2022-10-04T23:02:19;10.40;99.90
8684;DHT22;4379;59.744;18.206;2022-10-04T23:04:53;10.50;99.90
8684;DHT22;4379;59.744;18.206;2022-10-04T23:07:20;10.50;99.90
8684;DHT22;4379;59.744;18.206;2022-10-04T23:09:48;10.50;99.90
8684;DHT22;4379;59.744;18.206;2022-10-04T23:12:15;10.50;99.90
8684;DHT22;4379;59.744;18.206;2022-10-04T23:14:42;10.40;99.90
8684;DHT22;4379;59.744;18.206;2022-10-04T23:19:45;10.50;99.90
8684;DHT22;4379;59.744;18.206;2022-10-04T23:22:15;10.50;99.90
8684;DHT22;4379;59.744;18.206;2022-10-04T23:24:44;10.50;99.90
8684;DHT22;4379;59.744;18.206;2022-10-04T23:27:15;10.40;99.90
8684;DHT22;4379;59.744;18.206;2022-10-04T23:29:46;10.50;99.90
8684;DHT22;4379;59.744;18.206;2022-10-04T23:32:16;10.40;99.90
8684;DHT22;4379;59.744;18.206;2022-10-04T23:34:48;10.50;99.90
8684;DHT22;4379;59.744;18.206;2022-10-04T23:37:24;10.50;99.90
8684;DHT22;4379;59.744;18.206;2022-10-04T23:39:53;10.40;99.90
8684;DHT22;4379;59.744;18.206;2022-10-04T23:42:23;10.50;99.90
8684;DHT22;4379;59.744;18.206;2022-10-04T23:45:00;10.50;99.90
8684;DHT22;4379;59.744;18.206;2022-10-04T23:47:35;10.40;99.90
8684;DHT22;4379;59.744;18.206;2022-10-04T23:50:23;10.50;99.90
8684;DHT22;4379;59.744;18.206;2022-10-04T23:52:53;10.40;99.90
8684;DHT22;4379;59.744;18.206;2022-10-04T23:55:26;10.50;99.90
8684;DHT22;4379;59.744;18.206;2022-10-04T23:57:55;10.50;99.90
